createdAt,value
2017-08-27T00:00:16.759Z,14.63
2017-08-27T00:02:44.163Z,13.50
2017-08-27T00:05:11.568Z,13.40
2017-08-27T00:07:38.970Z,13.60
2017-08-27T00:10:06.381Z,13.70
2017-08-27T00:12:33.783Z,14.40
2017-08-27T00:15:01.186Z,13.80
2017-08-27T00:17:28.591Z,13.30
2017-08-27T00:19:55.988Z,12.63
2017-08-27T00:22:23.403Z,12.40
2017-08-27T00:24:50.803Z,14.67
2017-08-27T00:27:18.203Z,13.30
2017-08-27T00:29:45.599Z,14.47
2017-08-27T00:32:13.003Z,13.50
2017-08-27T00:34:40.437Z,14.53
2017-08-27T00:37:07.884Z,14.00
2017-08-27T00:39:35.490Z,14.87
2017-08-27T00:42:02.892Z,14.27
2017-08-27T00:44:30.294Z,13.83
2017-08-27T00:46:57.690Z,14.47
2017-08-27T00:49:25.122Z,13.73
2017-08-27T00:51:52.506Z,12.10
2017-08-27T00:54:19.913Z,11.90
2017-08-27T00:56:47.315Z,12.33
2017-08-27T00:59:14.711Z,13.23
2017-08-27T01:01:42.116Z,11.73
2017-08-27T01:04:09.506Z,10.70
2017-08-27T01:06:36.912Z,13.30
2017-08-27T01:09:04.345Z,12.33
2017-08-27T01:11:31.747Z,13.20
2017-08-27T01:13:59.138Z,14.73
2017-08-27T01:16:26.553Z,14.13
2017-08-27T01:18:53.943Z,17.07
2017-08-27T01:21:21.342Z,18.50
2017-08-27T01:23:48.738Z,19.70
2017-08-27T01:26:16.148Z,19.80
2017-08-27T01:28:43.547Z,17.37
2017-08-27T01:31:10.960Z,16.87
2017-08-27T01:33:38.346Z,15.63
2017-08-27T01:36:05.750Z,15.80
2017-08-27T01:38:33.147Z,17.27
2017-08-27T01:41:00.553Z,20.53
2017-08-27T01:43:27.939Z,19.67
2017-08-27T01:45:55.358Z,17.80
2017-08-27T01:48:22.963Z,21.20
2017-08-27T01:50:50.363Z,23.77
2017-08-27T01:53:17.758Z,21.80
2017-08-27T01:55:45.183Z,18.50
2017-08-27T01:58:12.575Z,22.33
2017-08-27T02:00:39.974Z,20.80
2017-08-27T02:03:07.379Z,20.77
2017-08-27T02:05:34.783Z,23.13
2017-08-27T02:08:02.179Z,21.43
2017-08-27T02:10:29.575Z,20.63
2017-08-27T02:12:56.977Z,21.10
2017-08-27T02:15:24.374Z,22.50
2017-08-27T02:17:51.785Z,24.07
2017-08-27T02:20:19.187Z,25.10
2017-08-27T02:22:46.595Z,24.07
2017-08-27T02:25:13.995Z,26.93
2017-08-27T02:27:41.403Z,28.27
2017-08-27T02:30:08.799Z,26.43
2017-08-27T02:32:36.211Z,26.50
2017-08-27T02:35:03.606Z,26.33
2017-08-27T02:37:31.016Z,25.87
2017-08-27T02:39:58.407Z,27.93
2017-08-27T02:42:25.829Z,25.60
2017-08-27T02:44:53.215Z,25.30
2017-08-27T02:47:20.641Z,23.07
2017-08-27T02:49:48.238Z,27.83
2017-08-27T02:52:15.637Z,26.73
2017-08-27T02:54:43.030Z,25.30
2017-08-27T02:57:10.431Z,27.80
2017-08-27T02:59:37.835Z,27.47
2017-08-27T03:02:05.238Z,24.80
2017-08-27T03:04:32.639Z,29.27
2017-08-27T03:07:00.039Z,27.70
2017-08-27T03:09:27.454Z,28.30
2017-08-27T03:11:54.860Z,28.37
2017-08-27T03:14:22.267Z,29.47
2017-08-27T03:16:49.663Z,30.30
2017-08-27T03:19:17.068Z,27.80
2017-08-27T03:21:44.479Z,27.43
2017-08-27T03:24:11.878Z,27.90
2017-08-27T03:26:39.278Z,29.27
2017-08-27T03:29:06.687Z,30.27
2017-08-27T03:31:34.091Z,31.83
2017-08-27T03:34:01.483Z,26.67
2017-08-27T03:36:28.890Z,29.40
2017-08-27T03:38:56.275Z,30.33
2017-08-27T03:41:23.683Z,26.00
2017-08-27T03:43:51.120Z,27.13
2017-08-27T03:46:18.530Z,28.73
2017-08-27T03:48:45.941Z,28.80
2017-08-27T03:51:13.338Z,28.30
2017-08-27T03:53:40.737Z,26.40
2017-08-27T03:56:08.150Z,26.73
2017-08-27T03:58:35.552Z,28.70
2017-08-27T04:01:02.971Z,27.67
2017-08-27T04:03:30.371Z,29.13
2017-08-27T04:05:57.987Z,26.13
2017-08-27T04:08:25.392Z,27.67
2017-08-27T04:10:52.798Z,26.80
2017-08-27T04:13:20.195Z,27.57
2017-08-27T04:15:47.866Z,30.17
2017-08-27T04:18:15.259Z,29.23
2017-08-27T04:20:42.655Z,29.70
2017-08-27T04:23:10.059Z,31.53
2017-08-27T04:25:37.476Z,30.70
2017-08-27T04:28:04.897Z,30.47
2017-08-27T04:30:32.295Z,27.67
2017-08-27T04:32:59.931Z,30.30
2017-08-27T04:35:27.332Z,30.37
2017-08-27T04:37:54.743Z,31.20
2017-08-27T04:40:22.151Z,32.93
2017-08-27T04:42:49.767Z,31.57
2017-08-27T04:45:17.171Z,34.13
2017-08-27T04:47:44.570Z,34.17
2017-08-27T04:50:11.974Z,36.80
2017-08-27T04:52:39.379Z,35.13
2017-08-27T04:55:06.774Z,35.60
2017-08-27T04:57:34.206Z,35.70
2017-08-27T05:00:01.614Z,32.50
2017-08-27T05:02:29.019Z,36.53
2017-08-27T05:04:56.416Z,41.07
2017-08-27T05:07:23.817Z,32.97
2017-08-27T05:09:51.222Z,41.17
2017-08-27T05:12:18.639Z,39.80
2017-08-27T05:14:46.260Z,47.40
2017-08-27T05:17:13.664Z,46.03
2017-08-27T05:19:41.066Z,44.60
2017-08-27T05:22:08.456Z,48.13
2017-08-27T05:24:35.859Z,43.40
2017-08-27T05:27:03.252Z,51.73
2017-08-27T05:29:30.655Z,49.03
2017-08-27T05:31:58.053Z,49.00
2017-08-27T05:34:25.457Z,58.33
2017-08-27T05:36:52.855Z,59.97
2017-08-27T05:39:20.265Z,56.60
2017-08-27T05:41:47.673Z,59.77
2017-08-27T05:44:15.291Z,58.80
2017-08-27T05:46:42.914Z,62.47
2017-08-27T05:49:10.319Z,62.63
2017-08-27T05:51:37.726Z,64.13
2017-08-27T05:54:05.147Z,64.60
2017-08-27T05:56:32.551Z,64.57
2017-08-27T05:58:59.962Z,65.80
2017-08-27T06:01:27.358Z,60.83
2017-08-27T06:03:54.771Z,61.53
2017-08-27T06:06:22.182Z,58.73
2017-08-27T06:08:49.804Z,60.20
2017-08-27T06:11:17.203Z,59.73
2017-08-27T06:13:44.614Z,53.73
2017-08-27T06:16:12.011Z,59.37
2017-08-27T06:18:39.420Z,53.23
2017-08-27T06:21:06.815Z,53.40
2017-08-27T06:23:34.215Z,55.47
2017-08-27T06:26:01.619Z,52.53
2017-08-27T06:28:29.031Z,50.83
2017-08-27T06:30:56.431Z,52.40
2017-08-27T06:33:23.835Z,51.97
2017-08-27T06:35:51.244Z,46.43
2017-08-27T06:38:18.858Z,44.43
2017-08-27T06:40:46.267Z,41.03
2017-08-27T06:43:13.671Z,43.47
2017-08-27T06:45:41.086Z,43.70
2017-08-27T06:48:08.487Z,38.73
2017-08-27T06:50:35.897Z,38.10
2017-08-27T06:53:03.295Z,37.53
2017-08-27T06:55:30.694Z,35.87
2017-08-27T06:57:58.099Z,33.00
2017-08-27T07:00:25.520Z,32.10
2017-08-27T07:02:52.914Z,31.40
2017-08-27T07:05:20.330Z,29.53
2017-08-27T07:07:47.723Z,27.17
2017-08-27T07:10:15.127Z,26.77
2017-08-27T07:12:42.534Z,25.50
2017-08-27T07:15:09.934Z,24.87
2017-08-27T07:17:37.352Z,22.27
2017-08-27T07:20:04.763Z,23.20
2017-08-27T07:22:32.172Z,20.00
2017-08-27T07:24:59.567Z,21.60
2017-08-27T07:27:27.189Z,18.50
2017-08-27T07:29:54.597Z,18.43
2017-08-27T07:32:21.994Z,15.10
2017-08-27T07:34:49.396Z,14.00
2017-08-27T07:37:16.798Z,15.43
2017-08-27T07:39:44.198Z,12.33
2017-08-27T07:42:11.603Z,11.70
2017-08-27T07:44:41.852Z,12.00
2017-08-27T07:47:09.253Z,10.80
2017-08-27T07:49:36.648Z,9.87
2017-08-27T07:52:04.032Z,7.50
2017-08-27T07:54:31.431Z,8.50
2017-08-27T07:57:00.750Z,8.20
2017-08-27T07:59:28.146Z,8.03
2017-08-27T08:01:55.536Z,7.53
2017-08-27T08:04:22.940Z,7.40
2017-08-27T08:06:50.339Z,8.60
2017-08-27T08:09:17.998Z,7.80
2017-08-27T08:11:45.431Z,6.47
2017-08-27T08:14:12.830Z,6.80
2017-08-27T08:16:40.235Z,6.67
2017-08-27T08:19:07.649Z,6.80
2017-08-27T08:21:35.039Z,4.93
2017-08-27T08:24:02.439Z,3.17
2017-08-27T08:26:30.085Z,3.70
2017-08-27T08:28:57.495Z,3.73
2017-08-27T08:31:24.911Z,2.00
2017-08-27T08:33:52.308Z,1.90
2017-08-27T08:36:19.706Z,1.73
2017-08-27T08:38:47.101Z,2.20
2017-08-27T08:41:14.504Z,2.53
2017-08-27T08:43:41.895Z,2.70
2017-08-27T08:46:09.299Z,2.53
2017-08-27T08:48:36.683Z,2.00
2017-08-27T08:51:04.079Z,2.27
2017-08-27T08:53:31.475Z,1.80
2017-08-27T08:55:58.881Z,1.70
2017-08-27T08:58:26.273Z,1.90
2017-08-27T09:00:53.883Z,2.00
2017-08-27T09:03:21.270Z,1.93
2017-08-27T09:05:48.669Z,1.50
2017-08-27T09:08:16.051Z,1.40
2017-08-27T09:10:44.279Z,1.70
2017-08-27T09:13:11.651Z,1.57
2017-08-27T09:15:39.043Z,1.70
2017-08-27T09:18:06.435Z,1.80
2017-08-27T09:20:33.826Z,1.73
2017-08-27T09:23:01.215Z,1.47
2017-08-27T09:25:28.624Z,1.30
2017-08-27T09:27:55.998Z,1.40
2017-08-27T09:30:23.390Z,1.33
2017-08-27T09:32:50.776Z,1.50
2017-08-27T09:35:18.171Z,1.57
2017-08-27T09:37:45.570Z,1.50
2017-08-27T09:40:12.955Z,1.30
2017-08-27T09:42:40.352Z,1.13
2017-08-27T09:45:07.748Z,1.47
2017-08-27T09:47:35.142Z,1.40
2017-08-27T09:50:02.542Z,1.40
2017-08-27T09:52:29.936Z,1.37
2017-08-27T09:54:57.322Z,1.70
2017-08-27T09:57:24.715Z,1.73
2017-08-27T09:59:52.104Z,1.40
2017-08-27T10:02:19.494Z,1.67
2017-08-27T10:04:46.880Z,1.40
2017-08-27T10:07:14.271Z,1.43
2017-08-27T10:09:41.667Z,1.80
2017-08-27T10:12:09.071Z,1.57
2017-08-27T10:14:36.668Z,1.20
2017-08-27T10:17:04.079Z,1.27
2017-08-27T10:19:31.451Z,1.30
2017-08-27T10:21:58.859Z,1.13
2017-08-27T10:24:26.248Z,1.37
2017-08-27T10:26:53.640Z,1.27
2017-08-27T10:29:21.242Z,1.20
2017-08-27T10:31:48.631Z,1.27
2017-08-27T10:34:16.267Z,1.50
2017-08-27T10:36:43.655Z,1.30
2017-08-27T10:39:11.050Z,1.17
2017-08-27T10:41:38.443Z,1.43
2017-08-27T10:44:05.847Z,2.10
2017-08-27T10:46:33.238Z,1.10
2017-08-27T10:49:00.638Z,1.10
2017-08-27T10:51:28.026Z,1.13
2017-08-27T10:53:55.413Z,1.20
2017-08-27T10:56:22.804Z,1.63
2017-08-27T10:58:50.205Z,1.10
2017-08-27T11:01:17.586Z,1.10
2017-08-27T11:03:44.988Z,1.30
2017-08-27T11:06:12.374Z,1.30
2017-08-27T11:08:39.762Z,1.27
2017-08-27T11:11:07.155Z,1.47
2017-08-27T11:13:34.553Z,1.30
2017-08-27T11:16:01.939Z,1.43
2017-08-27T11:18:29.330Z,1.07
2017-08-27T11:20:56.767Z,1.27
2017-08-27T11:23:24.375Z,1.00
2017-08-27T11:25:51.764Z,1.10
2017-08-27T11:28:19.167Z,1.13
2017-08-27T11:30:46.554Z,1.63
2017-08-27T11:33:14.167Z,1.60
2017-08-27T11:35:41.556Z,1.17
2017-08-27T11:38:08.967Z,1.13
2017-08-27T11:40:36.351Z,1.17
2017-08-27T11:43:03.744Z,1.50
2017-08-27T11:45:31.143Z,1.10
2017-08-27T11:47:58.558Z,1.70
2017-08-27T11:50:25.998Z,1.50
2017-08-27T11:52:53.404Z,1.80
2017-08-27T11:55:20.803Z,1.00
2017-08-27T11:57:48.192Z,1.33
2017-08-27T12:00:15.586Z,1.50
2017-08-27T12:02:42.983Z,1.40
2017-08-27T12:05:10.397Z,1.30
2017-08-27T12:07:37.779Z,1.70
2017-08-27T12:10:05.171Z,1.30
2017-08-27T12:12:32.563Z,1.30
2017-08-27T12:14:59.955Z,1.70
2017-08-27T12:17:27.364Z,1.23
2017-08-27T12:19:54.747Z,1.70
2017-08-27T12:22:22.161Z,1.20
2017-08-27T12:24:49.554Z,1.60
2017-08-27T12:27:16.939Z,1.47
2017-08-27T12:29:44.326Z,1.30
2017-08-27T12:32:11.719Z,1.30
2017-08-27T12:34:39.134Z,1.47
2017-08-27T12:37:06.527Z,1.10
2017-08-27T12:39:33.915Z,1.10
2017-08-27T12:42:01.315Z,1.10
2017-08-27T12:44:28.696Z,1.10
2017-08-27T12:46:56.095Z,1.00
2017-08-27T12:49:23.509Z,1.10
2017-08-27T12:51:50.894Z,1.40
2017-08-27T12:54:18.293Z,1.30
2017-08-27T12:56:45.679Z,0.97
2017-08-27T12:59:13.075Z,1.20
2017-08-27T13:01:40.471Z,1.57
2017-08-27T13:04:07.863Z,1.30
2017-08-27T13:06:35.266Z,0.93
2017-08-27T13:09:02.654Z,1.20
2017-08-27T13:11:30.276Z,1.00
2017-08-27T13:13:57.664Z,1.27
2017-08-27T13:16:25.071Z,1.27
2017-08-27T13:18:52.460Z,1.20
2017-08-27T13:21:19.851Z,1.40
2017-08-27T13:23:47.248Z,1.40
2017-08-27T13:26:14.636Z,0.87
2017-08-27T13:28:42.027Z,1.20
2017-08-27T13:31:09.419Z,1.20
2017-08-27T13:33:37.031Z,1.23
2017-08-27T13:36:04.428Z,1.40
2017-08-27T13:38:31.815Z,1.53
2017-08-27T13:40:59.203Z,1.10
2017-08-27T13:43:26.599Z,1.37
2017-08-27T13:45:53.999Z,1.47
2017-08-27T13:48:21.406Z,1.00
2017-08-27T13:50:48.787Z,1.40
2017-08-27T13:53:16.191Z,1.17
2017-08-27T13:55:43.587Z,1.30
2017-08-27T13:58:10.977Z,1.10
2017-08-27T14:00:38.375Z,1.77
2017-08-27T14:03:05.988Z,1.43
2017-08-27T14:05:33.593Z,1.30
2017-08-27T14:08:00.979Z,1.10
2017-08-27T14:10:28.370Z,1.23
2017-08-27T14:12:55.764Z,1.00
2017-08-27T14:15:23.159Z,1.13
2017-08-27T14:17:50.565Z,1.37
2017-08-27T14:20:18.155Z,1.33
2017-08-27T14:22:45.555Z,1.30
2017-08-27T14:25:12.967Z,1.47
2017-08-27T14:27:40.356Z,1.23
2017-08-27T14:30:07.768Z,1.27
2017-08-27T14:32:35.163Z,1.30
2017-08-27T14:35:02.777Z,1.40
2017-08-27T14:37:30.172Z,1.40
2017-08-27T14:39:57.587Z,0.90
2017-08-27T14:42:24.971Z,1.27
2017-08-27T14:44:52.362Z,0.90
2017-08-27T14:47:19.767Z,1.20
2017-08-27T14:49:47.371Z,1.07
2017-08-27T14:52:14.763Z,1.40
2017-08-27T14:54:42.156Z,1.33
2017-08-27T14:57:10.240Z,1.10
2017-08-27T14:59:37.627Z,1.20
2017-08-27T15:02:05.036Z,1.30
2017-08-27T15:04:32.420Z,1.10
2017-08-27T15:07:00.026Z,1.00
2017-08-27T15:09:27.651Z,1.27
2017-08-27T15:11:55.031Z,1.37
2017-08-27T15:14:22.428Z,1.50
2017-08-27T15:16:49.818Z,1.30
2017-08-27T15:19:17.207Z,1.73
2017-08-27T15:21:44.595Z,1.17
2017-08-27T15:24:11.983Z,1.87
2017-08-27T15:26:39.387Z,1.30
2017-08-27T15:29:06.793Z,1.23
2017-08-27T15:31:34.183Z,1.30
2017-08-27T15:34:01.567Z,1.20
2017-08-27T15:36:28.958Z,0.90
2017-08-27T15:38:56.343Z,1.23
2017-08-27T15:41:23.997Z,1.00
2017-08-27T15:43:51.426Z,1.20
2017-08-27T15:46:19.024Z,1.30
2017-08-27T15:48:46.458Z,1.20
2017-08-27T15:51:13.846Z,1.23
2017-08-27T15:53:41.238Z,1.27
2017-08-27T15:56:08.627Z,1.30
2017-08-27T15:58:36.058Z,1.27
2017-08-27T16:01:03.439Z,1.50
2017-08-27T16:03:30.831Z,1.30
2017-08-27T16:05:58.222Z,1.47
2017-08-27T16:08:25.613Z,1.30
2017-08-27T16:10:53.011Z,1.07
2017-08-27T16:13:20.399Z,1.40
2017-08-27T16:15:47.799Z,0.87
2017-08-27T16:18:15.195Z,1.17
2017-08-27T16:20:42.577Z,1.30
2017-08-27T16:23:09.991Z,1.23
2017-08-27T16:25:37.383Z,1.20
2017-08-27T16:28:04.783Z,1.30
2017-08-27T16:30:32.184Z,1.87
2017-08-27T16:32:59.571Z,1.20
2017-08-27T16:35:26.977Z,1.27
2017-08-27T16:37:54.377Z,1.23
2017-08-27T16:40:21.771Z,1.47
2017-08-27T16:42:49.167Z,1.20
2017-08-27T16:45:16.571Z,1.27
2017-08-27T16:47:43.952Z,1.27
2017-08-27T16:50:11.342Z,1.30
2017-08-27T16:52:38.749Z,1.57
2017-08-27T16:55:06.126Z,1.10
2017-08-27T16:57:33.514Z,1.53
2017-08-27T17:00:00.924Z,1.63
2017-08-27T17:02:28.523Z,1.20
2017-08-27T17:04:56.127Z,1.00
2017-08-27T17:07:23.511Z,1.50
2017-08-27T17:09:50.923Z,1.43
2017-08-27T17:12:18.529Z,1.20
2017-08-27T17:14:45.932Z,1.50
2017-08-27T17:17:13.317Z,1.30
2017-08-27T17:19:42.096Z,1.50
2017-08-27T17:22:09.480Z,1.50
2017-08-27T17:24:36.883Z,1.50
2017-08-27T17:27:04.381Z,1.70
2017-08-27T17:29:31.762Z,1.57
2017-08-27T17:31:59.163Z,1.60
2017-08-27T17:34:26.561Z,1.40
2017-08-27T17:36:53.947Z,1.50
2017-08-27T17:39:21.335Z,1.50
2017-08-27T17:41:48.728Z,1.37
2017-08-27T17:44:16.123Z,1.20
2017-08-27T17:46:43.615Z,1.03
2017-08-27T17:49:11.122Z,1.00
2017-08-27T17:51:38.510Z,1.40
2017-08-27T17:54:05.915Z,1.70
2017-08-27T17:56:33.300Z,1.10
2017-08-27T17:59:00.902Z,1.87
2017-08-27T18:01:28.299Z,2.13
2017-08-27T18:03:55.691Z,2.27
2017-08-27T18:06:23.084Z,2.00
2017-08-27T18:08:50.488Z,1.40
2017-08-27T18:11:17.883Z,1.47
2017-08-27T18:13:45.280Z,1.13
2017-08-27T18:16:12.681Z,1.33
2017-08-27T18:18:40.064Z,1.10
2017-08-27T18:21:07.675Z,1.30
2017-08-27T18:23:35.092Z,1.20
2017-08-27T18:26:02.474Z,1.47
2017-08-27T18:28:29.866Z,1.40
2017-08-27T18:30:57.255Z,1.20
2017-08-27T18:33:24.650Z,1.00
2017-08-27T18:35:52.038Z,1.47
2017-08-27T18:38:19.432Z,1.10
2017-08-27T18:40:46.844Z,1.63
2017-08-27T18:43:14.240Z,1.20
2017-08-27T18:45:41.622Z,1.70
2017-08-27T18:48:09.106Z,1.97
2017-08-27T18:50:36.693Z,1.67
2017-08-27T18:53:04.095Z,1.70
2017-08-27T18:55:31.483Z,1.20
2017-08-27T18:57:58.931Z,1.50
2017-08-27T19:00:26.303Z,1.50
2017-08-27T19:02:59.203Z,1.30
2017-08-27T19:08:06.661Z,1.83
2017-08-27T19:10:34.038Z,1.07
2017-08-27T19:13:01.427Z,1.50
2017-08-27T19:15:28.825Z,1.27
2017-08-27T19:17:56.242Z,1.17
2017-08-27T19:20:23.633Z,1.40
2017-08-27T19:22:51.034Z,1.47
2017-08-27T19:25:18.432Z,1.50
2017-08-27T19:27:45.815Z,1.40
2017-08-27T19:30:13.216Z,1.40
2017-08-27T19:32:40.608Z,1.37
2017-08-27T19:35:08.009Z,1.50
2017-08-27T19:37:35.395Z,1.27
2017-08-27T19:40:02.787Z,1.60
2017-08-27T19:42:30.176Z,1.43
2017-08-27T19:44:57.580Z,1.27
2017-08-27T19:47:24.966Z,1.10
2017-08-27T19:49:52.368Z,1.40
2017-08-27T19:52:19.769Z,1.30
2017-08-27T19:54:47.203Z,1.30
2017-08-27T19:57:14.586Z,1.33
2017-08-27T19:59:41.979Z,1.90
2017-08-27T20:04:43.199Z,1.63
2017-08-27T20:07:10.583Z,1.30
2017-08-27T20:09:38.191Z,1.67
2017-08-27T20:12:05.588Z,1.53
2017-08-27T20:14:32.979Z,1.60
2017-08-27T20:19:34.243Z,1.43
2017-08-27T20:22:01.631Z,1.67
2017-08-27T20:24:29.027Z,2.17
2017-08-27T20:26:56.428Z,1.60
2017-08-27T20:29:23.819Z,2.20
2017-08-27T20:31:51.215Z,1.20
2017-08-27T20:34:18.615Z,1.93
2017-08-27T20:36:46.011Z,1.50
2017-08-27T20:39:13.410Z,2.30
2017-08-27T20:41:40.803Z,1.47
2017-08-27T20:44:08.199Z,1.80
2017-08-27T20:46:35.579Z,1.53
2017-08-27T20:49:02.983Z,2.07
2017-08-27T20:51:30.383Z,1.70
2017-08-27T20:53:57.778Z,1.30
2017-08-27T20:56:25.183Z,1.57
2017-08-27T20:58:52.579Z,1.67
2017-08-27T21:01:20.194Z,1.70
2017-08-27T21:03:47.579Z,1.70
2017-08-27T21:06:14.978Z,1.30
2017-08-27T21:08:42.378Z,1.53
2017-08-27T21:11:09.774Z,1.73
2017-08-27T21:13:37.179Z,1.73
2017-08-27T21:16:04.581Z,1.80
2017-08-27T21:18:31.978Z,1.50
2017-08-27T21:20:59.371Z,1.60
2017-08-27T21:23:26.762Z,1.67
2017-08-27T21:25:54.156Z,1.80
2017-08-27T21:28:21.543Z,2.00
2017-08-27T21:30:48.942Z,1.40
2017-08-27T21:33:16.335Z,2.10
2017-08-27T21:35:43.736Z,1.93
2017-08-27T21:38:11.123Z,1.70
2017-08-27T21:40:38.518Z,1.90
2017-08-27T21:43:05.911Z,1.73
2017-08-27T21:45:33.322Z,1.30
2017-08-27T21:48:00.727Z,1.70
2017-08-27T21:50:28.116Z,2.17
2017-08-27T21:52:55.511Z,1.20
2017-08-27T21:55:22.899Z,1.70
2017-08-27T21:57:50.295Z,1.70
2017-08-27T22:00:17.699Z,1.50
2017-08-27T22:02:45.095Z,2.20
2017-08-27T22:05:12.482Z,1.80
2017-08-27T22:07:39.879Z,1.30
2017-08-27T22:10:07.283Z,1.57
2017-08-27T22:12:34.678Z,1.50
2017-08-27T22:15:02.070Z,1.57
2017-08-27T22:17:29.468Z,1.60
2017-08-27T22:19:56.851Z,2.07
2017-08-27T22:22:24.243Z,1.73
2017-08-27T22:24:51.631Z,1.70
2017-08-27T22:27:19.026Z,1.73
2017-08-27T22:29:46.684Z,2.03
2017-08-27T22:32:14.347Z,1.60
2017-08-27T22:34:41.739Z,2.10
2017-08-27T22:37:09.710Z,1.30
2017-08-27T22:39:37.103Z,1.33
2017-08-27T22:42:04.504Z,1.80
2017-08-27T22:44:31.895Z,1.80
2017-08-27T22:46:59.290Z,2.07
2017-08-27T22:49:26.691Z,1.80
2017-08-27T22:51:54.099Z,1.67
2017-08-27T22:54:21.491Z,1.30
2017-08-27T22:56:48.895Z,2.00
2017-08-27T22:59:16.292Z,1.50
2017-08-27T23:01:43.691Z,1.57
2017-08-27T23:04:11.091Z,1.90
2017-08-27T23:06:38.507Z,1.33
2017-08-27T23:09:05.903Z,1.53
2017-08-27T23:11:33.295Z,2.20
2017-08-27T23:14:00.691Z,2.00
2017-08-27T23:16:28.085Z,1.80
2017-08-27T23:18:55.479Z,1.40
2017-08-27T23:21:22.927Z,1.50
2017-08-27T23:23:50.318Z,1.57
2017-08-27T23:26:17.712Z,1.50
2017-08-27T23:28:45.106Z,2.13
2017-08-27T23:31:12.502Z,1.13
2017-08-27T23:33:39.901Z,1.20
2017-08-27T23:36:07.282Z,1.17
2017-08-27T23:38:34.679Z,1.67
2017-08-27T23:41:02.064Z,1.50
2017-08-27T23:43:29.475Z,1.10
2017-08-27T23:45:56.869Z,1.27
2017-08-27T23:48:24.254Z,1.33
2017-08-27T23:50:51.647Z,1.50
2017-08-27T23:53:19.037Z,1.40
2017-08-27T23:55:46.435Z,2.17
2017-08-27T23:58:13.827Z,1.40
